sensor_id;sensor_type;location;lat;lon;timestamp;pressure;altitude;pressure_sealevel;temperature;humidity
5679;BME280;2862;52.560;13.566;2022-09-09T00:07:21;100180.50;;;15.70;100.00
5679;BME280;2862;52.560;13.566;2022-09-09T00:17:53;100183.38;;;15.68;100.00
5679;BME280;2862;52.560;13.566;2022-09-09T00:28:00;100180.69;;;15.60;100.00
5679;BME280;2862;52.560;13.566;2022-09-09T00:38:10;100164.50;;;15.60;100.00
5679;BME280;2862;52.560;13.566;2022-09-09T00:48:17;100168.56;;;15.64;100.00
5679;BME280;2862;52.560;13.566;2022-09-09T00:58:21;100170.41;;;15.63;100.00
5679;BME280;2862;52.560;13.566;2022-09-09T01:08:39;100184.41;;;15.51;100.00
5679;BME280;2862;52.560;13.566;2022-09-09T01:18:49;100184.94;;;15.38;100.00
5679;BME280;2862;52.560;13.566;2022-09-09T01:28:57;100198.63;;;15.20;100.00
5679;BME280;2862;52.560;13.566;2022-09-09T01:39:08;100189.19;;;15.00;100.00
5679;BME280;2862;52.560;13.566;2022-09-09T01:49:13;100179.44;;;15.07;100.00
5679;BME280;2862;52.560;13.566;2022-09-09T01:59:31;100178.78;;;15.05;100.00
5679;BME280;2862;52.560;13.566;2022-09-09T02:09:44;100188.69;;;15.04;100.00
5679;BME280;2862;52.560;13.566;2022-09-09T02:19:54;100195.59;;;14.99;100.00
5679;BME280;2862;52.560;13.566;2022-09-09T02:30:14;100209.41;;;14.87;100.00
5679;BME280;2862;52.560;13.566;2022-09-09T02:40:24;100201.00;;;14.82;100.00
5679;BME280;2862;52.560;13.566;2022-09-09T02:50:39;100197.13;;;14.69;100.00
5679;BME280;2862;52.560;13.566;2022-09-09T03:00:48;100185.53;;;14.68;100.00
5679;BME280;2862;52.560;13.566;2022-09-09T03:10:55;100192.41;;;14.71;100.00
5679;BME280;2862;52.560;13.566;2022-09-09T03:21:00;100212.94;;;14.64;100.00
5679;BME280;2862;52.560;13.566;2022-09-09T03:31:05;100210.06;;;14.57;100.00
5679;BME280;2862;52.560;13.566;2022-09-09T03:41:15;100214.75;;;14.47;100.00
5679;BME280;2862;52.560;13.566;2022-09-09T03:51:21;100216.94;;;14.51;100.00
5679;BME280;2862;52.560;13.566;2022-09-09T04:01:25;100220.81;;;14.57;100.00
5679;BME280;2862;52.560;13.566;2022-09-09T04:11:30;100223.94;;;14.44;100.00
5679;BME280;2862;52.560;13.566;2022-09-09T04:21:34;100207.38;;;14.57;100.00
5679;BME280;2862;52.560;13.566;2022-09-09T04:31:38;100216.09;;;14.51;100.00
5679;BME280;2862;52.560;13.566;2022-09-09T04:41:44;100230.56;;;14.66;100.00
5679;BME280;2862;52.560;13.566;2022-09-09T04:51:49;100243.19;;;15.39;95.48
5679;BME280;2862;52.560;13.566;2022-09-09T05:01:52;100239.75;;;19.78;74.88
5679;BME280;2862;52.560;13.566;2022-09-09T05:11:58;100244.22;;;22.77;59.77
5679;BME280;2862;52.560;13.566;2022-09-09T05:22:05;100236.97;;;25.82;50.36
5679;BME280;2862;52.560;13.566;2022-09-09T05:32:17;100238.84;;;27.69;43.45
5679;BME280;2862;52.560;13.566;2022-09-09T05:42:23;100243.47;;;29.59;40.78
5679;BME280;2862;52.560;13.566;2022-09-09T05:52:27;100234.41;;;31.15;36.25
5679;BME280;2862;52.560;13.566;2022-09-09T06:02:32;100237.63;;;32.09;34.56
5679;BME280;2862;52.560;13.566;2022-09-09T06:12:36;100250.81;;;32.27;32.44
5679;BME280;2862;52.560;13.566;2022-09-09T06:22:41;100261.94;;;33.21;30.88
5679;BME280;2862;52.560;13.566;2022-09-09T06:32:46;100253.91;;;33.19;30.55
5679;BME280;2862;52.560;13.566;2022-09-09T06:42:49;100263.00;;;33.59;29.87
5679;BME280;2862;52.560;13.566;2022-09-09T06:53:07;100279.69;;;32.75;32.07
5679;BME280;2862;52.560;13.566;2022-09-09T07:03:11;100278.41;;;29.91;37.23
5679;BME280;2862;52.560;13.566;2022-09-09T07:13:16;100275.31;;;30.30;37.22
5679;BME280;2862;52.560;13.566;2022-09-09T07:23:23;100275.03;;;29.15;39.63
5679;BME280;2862;52.560;13.566;2022-09-09T07:33:28;100274.13;;;27.61;42.13
5679;BME280;2862;52.560;13.566;2022-09-09T07:43:32;100274.44;;;26.16;45.03
5679;BME280;2862;52.560;13.566;2022-09-09T07:53:37;100284.88;;;26.43;45.52
5679;BME280;2862;52.560;13.566;2022-09-09T08:03:42;100285.53;;;25.98;45.82
5679;BME280;2862;52.560;13.566;2022-09-09T08:13:47;100289.97;;;25.87;48.10
5679;BME280;2862;52.560;13.566;2022-09-09T08:23:56;100298.31;;;25.39;49.03
5679;BME280;2862;52.560;13.566;2022-09-09T08:34:01;100300.88;;;24.25;51.75
5679;BME280;2862;52.560;13.566;2022-09-09T08:44:07;100302.34;;;23.10;55.38
5679;BME280;2862;52.560;13.566;2022-09-09T08:54:14;100320.78;;;21.98;60.70
5679;BME280;2862;52.560;13.566;2022-09-09T09:04:32;100313.91;;;21.76;61.19
5679;BME280;2862;52.560;13.566;2022-09-09T09:14:40;100312.88;;;21.63;62.33
5679;BME280;2862;52.560;13.566;2022-09-09T09:24:50;100310.06;;;22.23;58.66
5679;BME280;2862;52.560;13.566;2022-09-09T09:34:58;100310.13;;;23.06;56.22
5679;BME280;2862;52.560;13.566;2022-09-09T09:45:14;100311.28;;;23.80;54.45
5679;BME280;2862;52.560;13.566;2022-09-09T09:55:21;100309.09;;;24.07;52.08
5679;BME280;2862;52.560;13.566;2022-09-09T10:05:27;100316.50;;;24.43;53.97
5679;BME280;2862;52.560;13.566;2022-09-09T10:15:47;100314.34;;;24.27;51.87
5679;BME280;2862;52.560;13.566;2022-09-09T10:26:12;100312.56;;;23.96;53.30
5679;BME280;2862;52.560;13.566;2022-09-09T10:36:23;100309.22;;;23.75;54.82
5679;BME280;2862;52.560;13.566;2022-09-09T10:46:35;100320.66;;;23.59;54.57
5679;BME280;2862;52.560;13.566;2022-09-09T10:56:52;100318.00;;;23.21;55.24
5679;BME280;2862;52.560;13.566;2022-09-09T11:07:00;100331.97;;;23.06;54.64
5679;BME280;2862;52.560;13.566;2022-09-09T11:17:13;100318.47;;;23.43;54.67
5679;BME280;2862;52.560;13.566;2022-09-09T11:27:21;100323.22;;;23.22;55.02
5679;BME280;2862;52.560;13.566;2022-09-09T11:48:25;100317.91;;;23.34;55.06
5679;BME280;2862;52.560;13.566;2022-09-09T11:58:35;100304.16;;;23.47;52.60
5679;BME280;2862;52.560;13.566;2022-09-09T12:08:41;100296.13;;;23.27;54.42
5679;BME280;2862;52.560;13.566;2022-09-09T12:18:47;100285.31;;;23.14;53.82
5679;BME280;2862;52.560;13.566;2022-09-09T12:29:05;100274.22;;;23.41;53.01
5679;BME280;2862;52.560;13.566;2022-09-09T12:39:19;100268.41;;;23.55;52.46
5679;BME280;2862;52.560;13.566;2022-09-09T12:49:28;100258.44;;;23.43;52.20
5679;BME280;2862;52.560;13.566;2022-09-09T12:59:38;100262.16;;;23.48;51.84
5679;BME280;2862;52.560;13.566;2022-09-09T13:09:41;100265.56;;;23.44;51.24
5679;BME280;2862;52.560;13.566;2022-09-09T13:19:46;100270.78;;;23.20;52.25
5679;BME280;2862;52.560;13.566;2022-09-09T13:29:51;100260.28;;;23.49;52.20
5679;BME280;2862;52.560;13.566;2022-09-09T13:39:59;100241.13;;;23.80;49.51
5679;BME280;2862;52.560;13.566;2022-09-09T13:50:18;100234.34;;;23.65;49.60
5679;BME280;2862;52.560;13.566;2022-09-09T14:00:24;100242.09;;;23.86;49.46
5679;BME280;2862;52.560;13.566;2022-09-09T14:10:27;100255.91;;;24.09;48.31
5679;BME280;2862;52.560;13.566;2022-09-09T14:20:31;100246.41;;;23.75;50.21
5679;BME280;2862;52.560;13.566;2022-09-09T14:30:34;100241.94;;;23.56;50.91
5679;BME280;2862;52.560;13.566;2022-09-09T14:40:38;100230.63;;;23.77;50.71
5679;BME280;2862;52.560;13.566;2022-09-09T14:50:41;100214.75;;;24.23;49.54
5679;BME280;2862;52.560;13.566;2022-09-09T15:00:45;100230.91;;;24.24;49.74
5679;BME280;2862;52.560;13.566;2022-09-09T15:10:48;100241.78;;;23.94;51.46
5679;BME280;2862;52.560;13.566;2022-09-09T15:20:52;100246.13;;;23.58;52.48
5679;BME280;2862;52.560;13.566;2022-09-09T15:30:56;100245.94;;;23.35;51.33
5679;BME280;2862;52.560;13.566;2022-09-09T15:41:00;100236.88;;;23.59;51.25
5679;BME280;2862;52.560;13.566;2022-09-09T15:51:04;100209.38;;;23.79;50.64
5679;BME280;2862;52.560;13.566;2022-09-09T16:01:13;100218.56;;;23.67;49.78
5679;BME280;2862;52.560;13.566;2022-09-09T16:11:22;100238.66;;;23.47;50.73
5679;BME280;2862;52.560;13.566;2022-09-09T16:21:28;100256.09;;;23.21;50.42
5679;BME280;2862;52.560;13.566;2022-09-09T16:31:31;100249.75;;;23.02;50.40
5679;BME280;2862;52.560;13.566;2022-09-09T16:41:37;100254.31;;;22.32;56.10
5679;BME280;2862;52.560;13.566;2022-09-09T16:51:41;100257.38;;;21.78;60.45
5679;BME280;2862;52.560;13.566;2022-09-09T17:01:48;100269.72;;;21.20;63.39
5679;BME280;2862;52.560;13.566;2022-09-09T17:11:53;100270.91;;;20.85;64.63
5679;BME280;2862;52.560;13.566;2022-09-09T17:21:57;100247.88;;;20.61;61.64
5679;BME280;2862;52.560;13.566;2022-09-09T17:32:16;100242.59;;;20.46;61.09
5679;BME280;2862;52.560;13.566;2022-09-09T17:42:21;100250.88;;;20.31;56.93
5679;BME280;2862;52.560;13.566;2022-09-09T17:52:23;100254.00;;;19.87;57.94
5679;BME280;2862;52.560;13.566;2022-09-09T18:02:27;100263.94;;;19.73;58.90
5679;BME280;2862;52.560;13.566;2022-09-09T18:12:30;100264.25;;;19.35;60.66
5679;BME280;2862;52.560;13.566;2022-09-09T18:22:34;100280.78;;;18.98;61.19
5679;BME280;2862;52.560;13.566;2022-09-09T18:32:37;100294.72;;;18.95;63.84
5679;BME280;2862;52.560;13.566;2022-09-09T18:42:41;100307.91;;;18.32;66.23
5679;BME280;2862;52.560;13.566;2022-09-09T18:52:44;100325.63;;;18.49;67.11
5679;BME280;2862;52.560;13.566;2022-09-09T19:02:48;100337.31;;;18.50;68.46
5679;BME280;2862;52.560;13.566;2022-09-09T19:12:55;100334.78;;;18.34;69.54
5679;BME280;2862;52.560;13.566;2022-09-09T19:22:59;100335.47;;;18.21;69.71
5679;BME280;2862;52.560;13.566;2022-09-09T19:33:02;100345.34;;;18.28;68.72
5679;BME280;2862;52.560;13.566;2022-09-09T19:43:07;100348.34;;;18.19;69.76
5679;BME280;2862;52.560;13.566;2022-09-09T19:53:10;100339.00;;;18.07;70.95
5679;BME280;2862;52.560;13.566;2022-09-09T20:03:14;100342.97;;;17.81;72.55
5679;BME280;2862;52.560;13.566;2022-09-09T20:13:21;100345.06;;;17.71;72.58
5679;BME280;2862;52.560;13.566;2022-09-09T20:23:26;100343.53;;;17.53;72.80
5679;BME280;2862;52.560;13.566;2022-09-09T20:33:29;100351.44;;;17.40;72.05
5679;BME280;2862;52.560;13.566;2022-09-09T20:43:34;100338.44;;;17.36;72.39
5679;BME280;2862;52.560;13.566;2022-09-09T20:53:37;100324.59;;;17.39;72.05
5679;BME280;2862;52.560;13.566;2022-09-09T21:03:42;100312.75;;;17.40;71.47
5679;BME280;2862;52.560;13.566;2022-09-09T21:13:45;100312.22;;;17.44;71.47
5679;BME280;2862;52.560;13.566;2022-09-09T21:23:53;100321.06;;;17.15;71.77
5679;BME280;2862;52.560;13.566;2022-09-09T21:33:56;100330.84;;;16.93;72.83
5679;BME280;2862;52.560;13.566;2022-09-09T21:44:01;100350.00;;;16.67;73.96
5679;BME280;2862;52.560;13.566;2022-09-09T21:54:04;100349.31;;;16.82;74.48
5679;BME280;2862;52.560;13.566;2022-09-09T22:04:09;100347.75;;;16.87;74.83
5679;BME280;2862;52.560;13.566;2022-09-09T22:14:12;100334.34;;;16.71;75.63
5679;BME280;2862;52.560;13.566;2022-09-09T22:24:18;100327.66;;;16.51;76.40
5679;BME280;2862;52.560;13.566;2022-09-09T22:34:21;100332.72;;;16.45;77.72
5679;BME280;2862;52.560;13.566;2022-09-09T22:44:26;100319.16;;;16.31;78.83
5679;BME280;2862;52.560;13.566;2022-09-09T22:54:30;100335.81;;;16.34;78.94
5679;BME280;2862;52.560;13.566;2022-09-09T23:04:34;100333.41;;;16.48;78.34
5679;BME280;2862;52.560;13.566;2022-09-09T23:14:40;100325.94;;;16.18;80.08
5679;BME280;2862;52.560;13.566;2022-09-09T23:24:44;100329.63;;;16.26;79.76
5679;BME280;2862;52.560;13.566;2022-09-09T23:34:47;100323.31;;;16.41;78.97
5679;BME280;2862;52.560;13.566;2022-09-09T23:44:52;100329.78;;;16.24;80.10
5679;BME280;2862;52.560;13.566;2022-09-09T23:54:55;100309.88;;;16.25;80.32
